Time;durP1;ratioP1;P1;durP2;ratioP2;P2;SDS_P1;SDS_P2;PMS_P1;PMS_P2;Temp;Humidity;BMP_temperature;BMP_pressure;BME280_temperature;BME280_humidity;BME280_pressure;Samples;Min_cycle;Max_cycle;Signal;HPM_P1;HPM_P2
2024/02/12 06:00:58;;;;;;;3.20;0.80;;;7.40;87.80;;;;;;4554503;23;20108;-76
2024/02/12 06:03:01;;;;;;;1.92;0.80;;;7.40;87.90;;;;;;4038513;29;20494;-76
2024/02/12 06:05:04;;;;;;;2.78;0.75;;;7.40;87.70;;;;;;4038343;29;20083;-76
2024/02/12 06:07:06;;;;;;;2.10;0.75;;;7.40;87.60;;;;;;4038241;29;20408;-76
2024/02/12 06:09:08;;;;;;;1.60;0.70;;;7.40;87.40;;;;;;4038289;29;20109;-76
2024/02/12 06:11:10;;;;;;;2.22;0.68;;;7.50;87.20;;;;;;4038125;29;20088;-77
2024/02/12 06:13:11;;;;;;;1.70;0.70;;;7.50;87.00;;;;;;4038267;29;20391;-75
2024/02/12 06:15:13;;;;;;;1.50;0.65;;;7.40;86.70;;;;;;4038270;29;20109;-75
2024/02/12 06:17:18;;;;;;;1.83;0.65;;;7.50;86.70;;;;;;4038220;29;20497;-74
2024/02/12 06:19:19;;;;;;;3.10;0.90;;;7.50;86.50;;;;;;4046368;29;20049;-75
2024/02/12 06:21:21;;;;;;;2.95;0.70;;;7.50;86.40;;;;;;4053569;29;20056;-77
2024/02/12 06:23:24;;;;;;;2.05;0.75;;;7.50;86.20;;;;;;4053334;29;20727;-77
2024/02/12 06:25:26;;;;;;;1.52;0.57;;;7.40;86.20;;;;;;4053619;29;20056;-76
2024/02/12 06:27:28;;;;;;;2.25;0.68;;;7.50;86.40;;;;;;4053529;29;20056;-76
2024/02/12 06:29:29;;;;;;;1.90;0.70;;;7.50;86.20;;;;;;4053529;29;20048;-77
2024/02/12 06:31:31;;;;;;;2.50;0.80;;;7.50;86.10;;;;;;4052980;29;20104;-77
2024/02/12 06:33:35;;;;;;;2.35;0.90;;;7.50;86.20;;;;;;4053149;29;20139;-76
2024/02/12 06:35:37;;;;;;;3.33;0.98;;;7.50;86.00;;;;;;4050554;29;20116;-76
2024/02/12 06:37:39;;;;;;;3.35;1.00;;;7.50;86.10;;;;;;4037917;29;20483;-77
2024/02/12 06:39:41;;;;;;;3.75;0.88;;;7.50;86.00;;;;;;4037700;29;20056;-76
2024/02/12 06:41:44;;;;;;;2.03;0.82;;;7.50;86.00;;;;;;4037665;29;20045;-77
2024/02/12 06:43:46;;;;;;;2.25;0.90;;;7.50;86.20;;;;;;4037762;29;20045;-76
2024/02/12 06:45:48;;;;;;;3.63;1.05;;;7.50;85.90;;;;;;4041360;29;20053;-76
2024/02/12 06:47:50;;;;;;;2.30;0.80;;;7.50;86.00;;;;;;4052799;29;20139;-76
2024/02/12 06:49:53;;;;;;;1.77;0.77;;;7.50;85.90;;;;;;4053000;29;20053;-76
2024/02/12 06:51:56;;;;;;;2.40;0.82;;;7.50;86.00;;;;;;4053003;29;20059;-77
2024/02/12 06:53:58;;;;;;;1.67;0.70;;;7.60;86.00;;;;;;4053166;29;20132;-77
2024/02/12 06:56:03;;;;;;;2.40;0.90;;;7.60;85.60;;;;;;4053118;29;20112;-77
2024/02/12 06:58:07;;;;;;;2.90;0.90;;;7.60;85.60;;;;;;4052993;29;20080;-76
2024/02/12 07:00:15;;;;;;;4.00;1.00;;;7.60;85.50;;;;;;4053108;29;20063;-76
2024/02/12 07:02:19;;;;;;;2.05;0.90;;;7.60;85.70;;;;;;4037647;29;20072;-76
2024/02/12 07:04:20;;;;;;;3.55;1.05;;;7.60;85.70;;;;;;4037644;29;20555;-76
2024/02/12 07:06:24;;;;;;;2.67;1.05;;;7.60;85.80;;;;;;4036761;29;20057;-77
2024/02/12 07:08:26;;;;;;;2.13;1.02;;;7.60;85.70;;;;;;4037461;29;20136;-77
2024/02/12 07:10:27;;;;;;;2.78;0.88;;;7.60;85.50;;;;;;4037501;29;20445;-76
2024/02/12 07:12:28;;;;;;;2.88;1.00;;;7.60;85.50;;;;;;4037290;29;20110;-77
2024/02/12 07:14:30;;;;;;;2.53;1.00;;;7.60;85.60;;;;;;4036367;29;20045;-76
2024/02/12 07:16:32;;;;;;;2.13;0.90;;;7.60;85.60;;;;;;4037251;29;20072;-76
2024/02/12 07:18:34;;;;;;;2.90;1.10;;;7.60;85.50;;;;;;4037362;29;20053;-76
2024/02/12 07:20:36;;;;;;;2.88;1.02;;;7.50;85.90;;;;;;4037509;29;20049;-76
2024/02/12 07:22:39;;;;;;;2.42;0.93;;;7.50;86.70;;;;;;4037469;29;20114;-76
2024/02/12 07:24:48;;;;;;;3.42;0.98;;;7.50;87.10;;;;;;4037408;29;20586;-76
2024/02/12 07:26:50;;;;;;;2.30;0.90;;;7.50;86.80;;;;;;4036589;29;20136;-77
2024/02/12 07:28:51;;;;;;;3.45;1.10;;;7.60;87.00;;;;;;4037451;29;20064;-77
2024/02/12 07:30:53;;;;;;;2.38;1.08;;;7.60;86.80;;;;;;4037282;29;20105;-76
2024/02/12 07:32:55;;;;;;;2.42;0.93;;;7.60;86.50;;;;;;4037452;29;20496;-76
2024/02/12 07:34:57;;;;;;;2.83;1.20;;;7.60;87.00;;;;;;4037259;29;20045;-76
2024/02/12 07:36:59;;;;;;;10.45;4.60;;;7.70;86.80;;;;;;4037288;29;20049;-76
2024/02/12 07:39:03;;;;;;;4.05;2.10;;;7.70;87.00;;;;;;4037318;29;20053;-76
2024/02/12 07:41:05;;;;;;;3.60;1.20;;;7.70;87.10;;;;;;4037160;29;20128;-76
2024/02/12 07:43:07;;;;;;;3.92;1.83;;;7.60;87.20;;;;;;4037763;29;20049;-76
2024/02/12 07:45:13;;;;;;;4.32;1.42;;;7.70;87.30;;;;;;4040232;29;20077;-76
2024/02/12 07:47:15;;;;;;;2.50;1.10;;;7.70;87.30;;;;;;4040321;29;20049;-76
2024/02/12 07:49:19;;;;;;;4.50;1.17;;;7.70;87.40;;;;;;4040040;29;20113;-76
2024/02/12 07:51:20;;;;;;;2.15;1.00;;;7.70;87.60;;;;;;4040225;29;20076;-76
2024/02/12 07:53:25;;;;;;;3.38;1.00;;;7.70;87.60;;;;;;4040066;29;20088;-77
2024/02/12 07:55:28;;;;;;;2.97;1.10;;;7.70;87.70;;;;;;4040217;29;20060;-76
2024/02/12 07:57:29;;;;;;;4.45;1.48;;;7.70;88.10;;;;;;4040077;29;20056;-76
2024/02/12 07:59:30;;;;;;;4.85;1.58;;;7.70;88.30;;;;;;4040124;29;20136;-76
2024/02/12 08:01:32;;;;;;;3.08;1.10;;;7.70;88.30;;;;;;4050120;29;20112;-76
2024/02/12 08:03:34;;;;;;;3.05;1.10;;;7.70;88.30;;;;;;4055160;29;20454;-76
2024/02/12 08:05:37;;;;;;;3.03;1.20;;;7.80;88.00;;;;;;4055466;29;20405;-77
2024/02/12 08:07:38;;;;;;;3.22;1.30;;;7.70;87.90;;;;;;4053567;29;20487;-76
2024/02/12 08:09:39;;;;;;;2.38;1.08;;;7.80;88.00;;;;;;4055521;29;20112;-75
2024/02/12 08:11:43;;;;;;;3.25;1.30;;;7.70;88.10;;;;;;4055472;29;20052;-75
2024/02/12 08:13:45;;;;;;;3.58;1.50;;;7.80;87.80;;;;;;4055438;29;20060;-76
2024/02/12 08:15:48;;;;;;;3.35;1.38;;;7.80;87.90;;;;;;4054345;29;20052;-76
2024/02/12 08:17:49;;;;;;;4.13;1.30;;;7.80;87.90;;;;;;4055358;29;20056;-75
2024/02/12 08:19:51;;;;;;;3.92;1.50;;;7.90;87.80;;;;;;4055353;29;20116;-76
2024/02/12 08:21:53;;;;;;;3.20;1.67;;;7.90;87.70;;;;;;4054303;29;20045;-76
2024/02/12 08:23:55;;;;;;;4.22;1.30;;;7.80;87.60;;;;;;4055168;29;20049;-76
2024/02/12 08:25:57;;;;;;;5.28;1.30;;;7.90;88.10;;;;;;4055126;29;20109;-76
2024/02/12 08:28:00;;;;;;;3.08;1.27;;;7.80;88.10;;;;;;4054845;29;20174;-76
2024/02/12 08:30:06;;;;;;;4.55;1.85;;;7.90;88.10;;;;;;4055040;29;20052;-76
2024/02/12 08:32:08;;;;;;;4.50;2.00;;;7.90;88.00;;;;;;4054868;29;20135;-76
2024/02/12 08:34:11;;;;;;;3.58;1.42;;;8.10;87.60;;;;;;4054336;29;20052;-76
2024/02/12 08:36:14;;;;;;;6.88;3.35;;;8.10;87.80;;;;;;4055009;29;20045;-75
2024/02/12 08:38:16;;;;;;;7.18;2.70;;;8.20;87.20;;;;;;4054853;29;20052;-75
2024/02/12 08:40:18;;;;;;;6.35;2.25;;;8.30;86.60;;;;;;4054900;29;20060;-76
2024/02/12 08:42:20;;;;;;;6.25;1.85;;;8.30;86.40;;;;;;4054749;29;20600;-75
2024/02/12 08:44:23;;;;;;;3.35;1.55;;;8.40;86.20;;;;;;4054928;29;20052;-76
2024/02/12 08:46:27;;;;;;;4.77;2.07;;;8.30;86.30;;;;;;4055008;29;20048;-76
2024/02/12 08:48:29;;;;;;;4.82;1.88;;;8.30;86.30;;;;;;4054766;29;20052;-76
2024/02/12 08:50:31;;;;;;;5.07;2.03;;;8.30;86.10;;;;;;4053696;29;20429;-77
2024/02/12 08:52:33;;;;;;;4.60;1.70;;;8.30;86.50;;;;;;4054758;29;20522;-76
2024/02/12 08:54:36;;;;;;;4.47;1.90;;;8.40;85.90;;;;;;4054204;29;20124;-76
2024/02/12 08:56:41;;;;;;;5.57;1.80;;;8.50;85.50;;;;;;4054392;29;20410;-76
2024/02/12 08:58:44;;;;;;;4.07;1.55;;;8.40;85.20;;;;;;4054609;29;20052;-76
2024/02/12 09:00:47;;;;;;;4.50;1.90;;;8.50;85.60;;;;;;4054155;29;20451;-76
2024/02/12 09:02:49;;;;;;;5.43;1.77;;;8.40;85.00;;;;;;4054586;29;20049;-76
2024/02/12 09:04:52;;;;;;;4.45;1.80;;;8.40;85.30;;;;;;4054591;29;20471;-76
2024/02/12 09:06:54;;;;;;;4.70;1.70;;;8.30;85.20;;;;;;4054400;29;20057;-76
2024/02/12 09:08:55;;;;;;;5.38;1.80;;;8.30;85.70;;;;;;4052621;29;20109;-76
2024/02/12 09:10:56;;;;;;;4.30;1.70;;;8.20;85.50;;;;;;4054162;29;20052;-76
2024/02/12 09:13:00;;;;;;;4.22;1.65;;;8.10;85.60;;;;;;4054454;29;20451;-76
2024/02/12 09:15:01;;;;;;;4.65;1.90;;;8.10;85.90;;;;;;4054419;29;20063;-76
2024/02/12 09:17:04;;;;;;;7.30;2.05;;;8.20;86.20;;;;;;4054191;29;20090;-76
2024/02/12 09:19:07;;;;;;;4.97;2.00;;;8.20;85.60;;;;;;4053997;29;20049;-75
2024/02/12 09:21:08;;;;;;;4.30;1.90;;;8.30;85.80;;;;;;4054291;29;20076;-76
2024/02/12 09:23:10;;;;;;;4.40;1.98;;;8.20;85.80;;;;;;4054300;29;20048;-75
2024/02/12 09:25:12;;;;;;;4.30;1.95;;;8.40;85.80;;;;;;4054021;29;20057;-76
2024/02/12 09:27:14;;;;;;;4.15;1.90;;;8.40;85.40;;;;;;4052146;29;20108;-76
2024/02/12 09:29:16;;;;;;;5.20;1.73;;;8.40;84.70;;;;;;4053987;29;20049;-76
2024/02/12 09:31:18;;;;;;;4.43;1.65;;;8.50;84.70;;;;;;4054276;29;20057;-76
2024/02/12 09:33:21;;;;;;;5.20;1.70;;;8.50;84.60;;;;;;4054212;29;20452;-76
2024/02/12 09:35:23;;;;;;;4.53;1.90;;;8.60;84.40;;;;;;4054209;29;20486;-76
2024/02/12 09:37:29;;;;;;;5.40;2.10;;;8.60;84.30;;;;;;4053736;29;20063;-76
2024/02/12 09:39:31;;;;;;;4.40;2.05;;;8.70;84.40;;;;;;4054166;29;20052;-74
2024/02/12 09:41:35;;;;;;;4.25;2.03;;;8.70;83.70;;;;;;4053683;29;20100;-75
2024/02/12 09:43:39;;;;;;;3.97;1.77;;;8.70;84.00;;;;;;4054085;29;20056;-76
2024/02/12 09:45:44;;;;;;;5.38;1.70;;;8.80;83.50;;;;;;4054074;29;20105;-76
2024/02/12 09:47:46;;;;;;;4.57;1.80;;;8.80;83.00;;;;;;4054143;29;20159;-76
2024/02/12 09:49:51;;;;;;;3.75;1.70;;;8.80;82.40;;;;;;4054132;29;20539;-76
2024/02/12 09:51:56;;;;;;;3.20;1.57;;;8.80;82.30;;;;;;4053907;29;20088;-76
2024/02/12 09:54:01;;;;;;;5.10;1.70;;;8.80;80.90;;;;;;4053921;29;20052;-76
2024/02/12 09:56:02;;;;;;;4.60;1.63;;;8.80;82.30;;;;;;4054180;29;20048;-76
2024/02/12 09:58:05;;;;;;;5.25;1.50;;;8.80;81.90;;;;;;4053754;29;20056;-76
2024/02/12 10:00:08;;;;;;;3.33;1.48;;;8.90;81.50;;;;;;4054034;29;20431;-76
2024/02/12 10:02:10;;;;;;;2.97;1.42;;;8.90;81.00;;;;;;4053572;29;20053;-76
2024/02/12 10:04:11;;;;;;;4.25;1.63;;;9.00;80.80;;;;;;4053741;29;20156;-76
2024/02/12 10:06:15;;;;;;;4.50;2.00;;;9.10;80.90;;;;;;4053592;29;20104;-76
2024/02/12 10:08:20;;;;;;;4.05;2.00;;;9.10;80.30;;;;;;4053842;29;20049;-76
2024/02/12 10:10:21;;;;;;;6.10;1.55;;;9.10;80.00;;;;;;4051600;29;20119;-77
2024/02/12 10:12:22;;;;;;;3.50;1.58;;;9.00;80.30;;;;;;4053268;29;20451;-75
2024/02/12 10:14:31;;;;;;;5.20;1.33;;;9.10;80.50;;;;;;4053699;29;20056;-76
2024/02/12 10:16:33;;;;;;;4.30;1.50;;;9.10;80.50;;;;;;4053691;29;20049;-76
2024/02/12 10:18:35;;;;;;;4.82;1.60;;;9.10;80.50;;;;;;4050388;29;20391;-78
2024/02/12 10:20:39;;;;;;;3.80;1.35;;;9.10;80.20;;;;;;4051598;29;20052;-79
2024/02/12 10:22:44;;;;;;;4.05;1.55;;;9.00;80.10;;;;;;4051522;29;20140;-77
2024/02/12 10:24:47;;;;;;;4.88;1.58;;;8.90;82.10;;;;;;4051773;29;20091;-77
2024/02/12 10:26:50;;;;;;;4.50;1.38;;;9.00;81.50;;;;;;4051479;29;20048;-77
2024/02/12 10:28:55;;;;;;;2.72;1.20;;;9.00;80.50;;;;;;4051488;29;20091;-76
2024/02/12 10:30:57;;;;;;;3.60;1.25;;;9.00;80.50;;;;;;4051267;29;20148;-78
2024/02/12 10:33:05;;;;;;;4.18;1.20;;;9.10;80.50;;;;;;4050929;29;20048;-77
2024/02/12 10:35:13;;;;;;;3.38;1.35;;;9.20;80.10;;;;;;4049074;29;20471;-77
2024/02/12 10:37:17;;;;;;;2.92;1.20;;;9.20;79.70;;;;;;4051273;29;20056;-77
2024/02/12 10:39:22;;;;;;;4.15;1.20;;;9.20;79.80;;;;;;4050922;29;20072;-77
2024/02/12 10:41:31;;;;;;;2.78;1.10;;;9.40;80.00;;;;;;4051061;29;20462;-76
2024/02/12 10:43:33;;;;;;;4.28;1.30;;;9.40;79.00;;;;;;4051405;29;20502;-77
2024/02/12 10:45:35;;;;;;;3.13;1.15;;;9.40;78.90;;;;;;4050863;29;20092;-77
2024/02/12 10:47:37;;;;;;;2.38;1.15;;;9.40;79.20;;;;;;4050798;29;20045;-78
2024/02/12 10:49:40;;;;;;;3.58;1.10;;;9.40;78.60;;;;;;4050988;29;20499;-77
2024/02/12 10:51:43;;;;;;;2.85;1.05;;;9.60;78.70;;;;;;4050957;29;20067;-77
2024/02/12 10:53:46;;;;;;;2.67;1.13;;;9.60;77.30;;;;;;4050911;29;20099;-77
2024/02/12 10:55:49;;;;;;;3.30;1.20;;;9.40;77.80;;;;;;4050663;29;20096;-76
2024/02/12 10:57:50;;;;;;;3.55;1.10;;;9.50;78.60;;;;;;4050927;29;20128;-77
2024/02/12 11:00:00;;;;;;;2.33;1.00;;;9.40;77.30;;;;;;4050565;29;20106;-76
2024/02/12 11:02:08;;;;;;;2.95;1.00;;;9.50;76.50;;;;;;4050879;29;20052;-77
2024/02/12 11:04:14;;;;;;;2.78;1.13;;;9.60;75.20;;;;;;4050926;29;20053;-77
2024/02/12 11:06:18;;;;;;;4.55;1.20;;;9.70;75.20;;;;;;4050578;29;20057;-77
2024/02/12 11:08:20;;;;;;;2.85;1.20;;;9.60;75.50;;;;;;4050709;29;20052;-77
2024/02/12 11:10:26;;;;;;;5.20;2.00;;;9.60;76.80;;;;;;4050436;29;20052;-77
2024/02/12 11:12:29;;;;;;;;;;;9.60;76.70;;;;;;4049529;29;20140;-77
2024/02/12 11:14:33;;;;;;;2.65;1.10;;;9.50;74.30;;;;;;4050780;29;20026;-76
2024/02/12 11:16:38;;;;;;;2.30;0.93;;;9.60;75.60;;;;;;4050754;29;20048;-77
2024/02/12 11:18:40;;;;;;;2.30;0.98;;;9.70;75.60;;;;;;4051849;29;20052;-77
2024/02/12 11:20:49;;;;;;;3.08;1.25;;;9.60;75.00;;;;;;4054089;29;20060;-76
2024/02/12 11:22:52;;;;;;;4.25;1.13;;;9.50;75.60;;;;;;4054050;29;20479;-77
2024/02/12 11:24:55;;;;;;;3.92;1.20;;;9.50;75.10;;;;;;4053823;29;20092;-76
2024/02/12 11:26:59;;;;;;;3.10;1.20;;;9.50;75.80;;;;;;4053809;29;20447;-77
2024/02/12 11:29:06;;;;;;;3.30;1.17;;;9.60;75.70;;;;;;4053550;29;20491;-77
2024/02/12 11:31:14;;;;;;;2.97;1.10;;;9.40;76.50;;;;;;4053815;29;20080;-77
2024/02/12 11:33:16;;;;;;;4.68;1.15;;;9.10;78.10;;;;;;4053769;29;20092;-77
2024/02/12 11:35:18;;;;;;;3.78;1.13;;;9.00;80.50;;;;;;4051389;29;20116;-76
2024/02/12 11:37:20;;;;;;;3.60;1.30;;;9.10;80.60;;;;;;4053442;29;20056;-76
2024/02/12 11:39:22;;;;;;;3.10;1.20;;;9.10;80.60;;;;;;4053720;29;20466;-76
2024/02/12 11:41:24;;;;;;;2.95;1.40;;;9.10;81.10;;;;;;4053356;29;20100;-77
2024/02/12 11:43:25;;;;;;;3.22;1.20;;;9.30;81.80;;;;;;4053432;29;20127;-77
2024/02/12 11:45:28;;;;;;;2.60;1.10;;;9.40;80.10;;;;;;4053072;29;20048;-76
2024/02/12 11:47:31;;;;;;;4.43;1.40;;;9.50;79.90;;;;;;4053611;29;20071;-76
2024/02/12 11:49:33;;;;;;;3.83;1.30;;;9.60;79.90;;;;;;4053558;29;20056;-75
2024/02/12 11:51:34;;;;;;;3.78;1.40;;;9.60;80.00;;;;;;4053403;29;20108;-76
2024/02/12 11:53:39;;;;;;;2.83;1.20;;;9.70;78.80;;;;;;4053235;29;20049;-75
2024/02/12 11:55:41;;;;;;;2.42;1.00;;;9.60;78.40;;;;;;4053403;29;20084;-75
2024/02/12 11:57:45;;;;;;;3.13;1.05;;;9.60;78.80;;;;;;4053379;29;20504;-75
2024/02/12 11:59:47;;;;;;;3.30;1.05;;;9.60;79.00;;;;;;4053307;29;20090;-76
2024/02/12 12:01:50;;;;;;;2.67;0.93;;;9.60;78.20;;;;;;4053218;29;20131;-76
2024/02/12 12:03:52;;;;;;;3.03;1.20;;;9.60;77.70;;;;;;4053200;29;20048;-78
2024/02/12 12:05:54;;;;;;;2.47;0.90;;;9.70;77.80;;;;;;4053363;29;20056;-76
2024/02/12 12:07:58;;;;;;;2.15;1.00;;;9.50;77.50;;;;;;4053211;29;20068;-76
2024/02/12 12:10:02;;;;;;;3.03;1.00;;;9.40;77.60;;;;;;4053380;29;20410;-77
2024/02/12 12:12:05;;;;;;;3.00;1.20;;;9.50;77.70;;;;;;4052348;29;20134;-76
2024/02/12 12:14:07;;;;;;;3.28;1.33;;;9.50;77.20;;;;;;4053104;29;20199;-76
2024/02/12 12:16:10;;;;;;;3.15;1.63;;;9.60;77.30;;;;;;4050112;29;20241;-76
2024/02/12 12:18:13;;;;;;;2.10;1.00;;;9.60;77.50;;;;;;4050410;29;20063;-76
2024/02/12 12:20:15;;;;;;;3.53;1.00;;;9.50;77.20;;;;;;4050059;29;20056;-76
2024/02/12 12:22:18;;;;;;;4.00;1.58;;;9.40;77.50;;;;;;4051973;29;20147;-75
2024/02/12 12:24:20;;;;;;;3.10;0.98;;;9.30;77.90;;;;;;4052538;29;20075;-75
2024/02/12 12:26:22;;;;;;;5.32;1.10;;;9.10;78.90;;;;;;4052494;29;20089;-76
2024/02/12 12:28:23;;;;;;;2.10;0.82;;;9.00;79.10;;;;;;4051787;29;20060;-75
2024/02/12 12:30:26;;;;;;;4.43;1.38;;;8.90;81.50;;;;;;4048926;29;20143;-76
2024/02/12 12:32:28;;;;;;;2.75;0.82;;;8.80;82.80;;;;;;4052093;29;20496;-75
2024/02/12 12:34:31;;;;;;;1.25;0.50;;;8.70;81.70;;;;;;4052439;29;20108;-76
2024/02/12 12:36:34;;;;;;;3.33;0.88;;;8.80;78.20;;;;;;4050725;29;20060;-75
2024/02/12 12:38:36;;;;;;;2.22;0.70;;;9.00;80.70;;;;;;4052536;29;20052;-75
2024/02/12 12:40:37;;;;;;;2.08;0.80;;;9.10;81.00;;;;;;4052531;29;20124;-76
2024/02/12 12:42:39;;;;;;;2.70;0.60;;;9.20;81.00;;;;;;4052483;29;20641;-75
2024/02/12 12:44:41;;;;;;;1.40;0.60;;;9.40;79.40;;;;;;4052468;29;20483;-75
2024/02/12 12:46:43;;;;;;;2.75;0.75;;;9.60;79.50;;;;;;4052447;29;20044;-76
2024/02/12 12:48:45;;;;;;;1.85;0.70;;;9.60;79.10;;;;;;4052258;29;20100;-76
2024/02/12 12:50:48;;;;;;;1.65;0.55;;;9.70;78.50;;;;;;4052517;29;20454;-75
2024/02/12 12:52:50;;;;;;;2.63;1.00;;;9.70;77.80;;;;;;4052597;29;20057;-74
2024/02/12 12:54:52;;;;;;;2.35;0.77;;;9.70;77.70;;;;;;4052310;29;20499;-75
2024/02/12 12:56:54;;;;;;;1.33;0.52;;;9.70;77.80;;;;;;4052389;29;20057;-75
2024/02/12 12:58:56;;;;;;;2.38;0.85;;;9.80;78.20;;;;;;4052121;29;20403;-75
2024/02/12 13:00:58;;;;;;;9.02;5.00;;;9.90;78.70;;;;;;4051880;29;20064;-75
2024/02/12 13:02:59;;;;;;;5.07;2.20;;;9.90;79.00;;;;;;4052345;29;20045;-75
2024/02/12 13:05:04;;;;;;;3.58;1.40;;;10.00;79.10;;;;;;4051807;29;20049;-75
2024/02/12 13:07:10;;;;;;;3.80;1.35;;;10.00;79.30;;;;;;4052084;29;20048;-75
2024/02/12 13:09:17;;;;;;;2.70;1.00;;;10.00;79.70;;;;;;4052221;29;20049;-75
2024/02/12 13:11:19;;;;;;;1.73;0.73;;;10.00;80.00;;;;;;4052518;29;20056;-75
2024/02/12 13:13:21;;;;;;;4.28;1.10;;;10.10;80.20;;;;;;4051851;29;20049;-75
2024/02/12 13:15:23;;;;;;;3.22;0.90;;;10.20;80.30;;;;;;4051880;29;20481;-76
2024/02/12 13:17:25;;;;;;;2.67;1.00;;;10.10;80.40;;;;;;4051603;29;20061;-75
2024/02/12 13:19:28;;;;;;;3.30;1.00;;;10.20;80.30;;;;;;4051678;29;20052;-75
2024/02/12 13:21:31;;;;;;;4.65;1.00;;;10.30;80.50;;;;;;4051801;29;20052;-75
2024/02/12 13:23:34;;;;;;;2.83;1.00;;;10.40;80.10;;;;;;4051547;29;20060;-75
2024/02/12 13:25:37;;;;;;;4.88;1.83;;;10.40;79.40;;;;;;4051770;29;20053;-75
2024/02/12 13:27:40;;;;;;;8.85;3.47;;;10.40;79.00;;;;;;4051393;29;20172;-75
2024/02/12 13:29:41;;;;;;;43.90;20.17;;;10.30;78.20;;;;;;4051356;29;20071;-75
2024/02/12 13:31:44;;;;;;;12.30;5.78;;;10.40;78.50;;;;;;4050024;29;20116;-75
2024/02/12 13:33:46;;;;;;;6.13;2.80;;;10.40;78.70;;;;;;4051684;29;20477;-75
2024/02/12 13:35:47;;;;;;;3.97;1.30;;;10.50;78.40;;;;;;4050035;29;20088;-75
2024/02/12 13:37:50;;;;;;;4.20;1.23;;;10.50;77.20;;;;;;4051687;29;20509;-75
2024/02/12 13:39:53;;;;;;;3.22;0.98;;;10.50;77.00;;;;;;4051581;29;20058;-75
2024/02/12 13:41:55;;;;;;;2.53;0.85;;;10.40;77.20;;;;;;4050851;29;20049;-76
2024/02/12 13:43:57;;;;;;;2.60;1.00;;;10.20;76.20;;;;;;4051486;29;20455;-76
2024/02/12 13:46:01;;;;;;;2.95;1.00;;;10.10;74.50;;;;;;4051441;29;20060;-75
2024/02/12 13:48:03;;;;;;;3.08;1.00;;;10.10;75.30;;;;;;4051730;29;20056;-76
2024/02/12 13:50:10;;;;;;;4.18;1.02;;;10.20;76.30;;;;;;4051412;29;20088;-75
2024/02/12 13:52:12;;;;;;;2.85;1.10;;;10.10;75.50;;;;;;4051513;29;20439;-75
2024/02/12 13:54:13;;;;;;;2.90;0.85;;;10.10;75.60;;;;;;4051314;29;20562;-76
2024/02/12 13:56:16;;;;;;;2.05;0.75;;;10.00;75.90;;;;;;4051132;29;20056;-76
2024/02/12 13:58:21;;;;;;;2.45;0.90;;;10.00;75.90;;;;;;4050868;29;20044;-76
2024/02/12 14:00:23;;;;;;;2.92;0.95;;;10.10;76.10;;;;;;4051088;29;20060;-76
2024/02/12 14:02:26;;;;;;;2.25;1.00;;;10.20;75.60;;;;;;4051515;29;20116;-75
2024/02/12 14:04:28;;;;;;;2.22;0.85;;;10.20;75.50;;;;;;4051314;29;20558;-76
2024/02/12 14:06:30;;;;;;;3.40;1.00;;;10.20;75.40;;;;;;4050734;29;20057;-75
2024/02/12 14:08:36;;;;;;;2.83;1.27;;;10.20;75.30;;;;;;4051032;29;20152;-75
2024/02/12 14:10:38;;;;;;;2.97;1.20;;;10.30;75.80;;;;;;4051187;29;20514;-75
2024/02/12 14:12:42;;;;;;;3.58;1.00;;;10.30;75.90;;;;;;4051047;29;20143;-75
2024/02/12 14:14:45;;;;;;;4.70;1.17;;;10.40;75.70;;;;;;4051370;29;20246;-75
2024/02/12 14:16:46;;;;;;;2.20;0.90;;;10.30;75.50;;;;;;4050768;29;20108;-75
2024/02/12 14:18:49;;;;;;;2.92;1.05;;;10.30;75.40;;;;;;4051200;29;20056;-75
2024/02/12 14:20:53;;;;;;;2.90;1.00;;;10.20;74.90;;;;;;4051212;29;20088;-75
2024/02/12 14:22:56;;;;;;;2.47;1.10;;;10.30;75.50;;;;;;4050953;29;20052;-75
2024/02/12 14:24:58;;;;;;;4.47;1.20;;;10.30;75.30;;;;;;4051445;29;20087;-76
2024/02/12 14:27:00;;;;;;;2.78;1.10;;;10.40;74.50;;;;;;4051196;29;20058;-76
2024/02/12 14:29:03;;;;;;;3.28;1.10;;;10.40;74.40;;;;;;4051244;29;20056;-76
2024/02/12 14:31:06;;;;;;;4.97;1.40;;;10.40;74.80;;;;;;4051412;29;20566;-75
2024/02/12 14:33:09;;;;;;;3.08;1.10;;;10.40;74.60;;;;;;4051446;29;20056;-75
2024/02/12 14:35:12;;;;;;;3.38;1.38;;;10.30;74.40;;;;;;4049410;29;20057;-75
2024/02/12 14:37:15;;;;;;;3.50;1.20;;;10.30;74.10;;;;;;4051377;29;20063;-76
2024/02/12 14:39:17;;;;;;;17.35;9.73;;;10.20;74.90;;;;;;4051336;29;20052;-76
2024/02/12 14:41:19;;;;;;;4.43;1.20;;;10.00;73.30;;;;;;4051049;29;20052;-76
2024/02/12 14:43:21;;;;;;;2.05;0.70;;;10.00;73.10;;;;;;4051224;29;20060;-76
2024/02/12 14:45:28;;;;;;;2.85;0.93;;;9.90;73.50;;;;;;4051419;29;20048;-76
2024/02/12 14:47:31;;;;;;;3.92;0.90;;;10.00;72.60;;;;;;4051040;29;20143;-76
2024/02/12 14:49:33;;;;;;;3.58;1.13;;;10.00;72.70;;;;;;4051380;29;20108;-76
2024/02/12 14:51:35;;;;;;;2.72;0.88;;;10.00;72.60;;;;;;4050759;29;20053;-75
2024/02/12 14:53:37;;;;;;;2.78;1.05;;;9.90;71.90;;;;;;4050180;29;20052;-75
2024/02/12 14:55:39;;;;;;;2.03;0.70;;;9.90;72.60;;;;;;4051326;29;20057;-76
2024/02/12 14:57:41;;;;;;;2.47;1.00;;;9.80;72.40;;;;;;4051001;29;20191;-76
2024/02/12 14:59:43;;;;;;;2.67;0.80;;;9.80;71.80;;;;;;4050854;29;20052;-75
2024/02/12 15:01:46;;;;;;;1.90;0.65;;;9.70;72.10;;;;;;4050880;29;20772;-75
2024/02/12 15:03:48;;;;;;;1.60;0.60;;;9.70;72.80;;;;;;4050724;29;20077;-76
2024/02/12 15:05:50;;;;;;;2.45;0.80;;;9.80;73.20;;;;;;4051087;29;20451;-75
2024/02/12 15:07:55;;;;;;;3.40;0.88;;;9.70;73.30;;;;;;4050803;29;20053;-76
2024/02/12 15:09:59;;;;;;;2.90;0.90;;;9.70;73.20;;;;;;4050911;29;20095;-76
2024/02/12 15:12:01;;;;;;;3.55;1.00;;;9.60;70.50;;;;;;4050326;29;20048;-76
2024/02/12 15:14:04;;;;;;;2.47;0.90;;;9.60;69.50;;;;;;4050554;29;20136;-76
2024/02/12 15:16:10;;;;;;;4.75;0.90;;;9.60;70.30;;;;;;4053933;29;20056;-76
2024/02/12 15:18:15;;;;;;;2.88;0.85;;;9.50;68.60;;;;;;4060603;29;20044;-77
2024/02/12 15:20:20;;;;;;;4.25;0.80;;;9.50;67.80;;;;;;4051538;29;20124;-77
2024/02/12 15:22:23;;;;;;;2.72;0.63;;;9.50;67.20;;;;;;4052821;29;20036;-77
2024/02/12 15:24:24;;;;;;;9.98;4.07;;;9.50;66.80;;;;;;4051292;29;20479;-77
2024/02/12 15:26:26;;;;;;;3.55;1.20;;;9.40;67.30;;;;;;4050820;29;20116;-78
2024/02/12 15:28:28;;;;;;;3.55;0.90;;;9.40;67.10;;;;;;4050770;29;20044;-78
2024/02/12 15:30:30;;;;;;;4.50;0.80;;;9.40;67.00;;;;;;4050904;29;20482;-77
2024/02/12 15:32:33;;;;;;;3.42;0.82;;;9.40;67.40;;;;;;4050654;29;20467;-77
2024/02/12 15:34:36;;;;;;;4.13;1.10;;;9.40;66.70;;;;;;4050552;29;20376;-78
2024/02/12 15:36:40;;;;;;;5.00;1.13;;;9.30;67.20;;;;;;4048587;29;20057;-78
2024/02/12 15:38:42;;;;;;;2.03;0.75;;;9.30;67.20;;;;;;4050653;29;20143;-78
2024/02/12 15:40:44;;;;;;;4.32;0.93;;;9.30;67.60;;;;;;4050699;29;20108;-78
2024/02/12 15:42:46;;;;;;;2.70;1.00;;;9.30;68.20;;;;;;4050364;29;20052;-78
2024/02/12 15:44:48;;;;;;;3.78;0.88;;;9.20;67.80;;;;;;4063114;29;20127;-78
2024/02/12 15:46:49;;;;;;;2.78;0.88;;;9.30;68.60;;;;;;4065953;29;20623;-78
2024/02/12 15:48:52;;;;;;;3.75;0.90;;;9.30;68.60;;;;;;4052940;29;20052;-78
2024/02/12 15:50:57;;;;;;;3.13;1.00;;;9.30;68.50;;;;;;4065864;29;20058;-78
2024/02/12 15:52:58;;;;;;;2.35;0.80;;;9.20;69.30;;;;;;4058390;29;20048;-78
2024/02/12 15:55:00;;;;;;;5.63;1.00;;;9.20;69.40;;;;;;4050676;29;20653;-78
2024/02/12 15:57:04;;;;;;;1.95;0.65;;;9.20;69.50;;;;;;4051377;29;20093;-77
2024/02/12 15:59:06;;;;;;;2.55;0.90;;;9.20;69.70;;;;;;4055873;29;20052;-77
2024/02/12 16:01:07;;;;;;;5.50;1.30;;;9.20;70.60;;;;;;4052635;29;20102;-77
2024/02/12 16:03:12;;;;;;;3.08;0.90;;;9.10;71.10;;;;;;4060195;29;20487;-77
2024/02/12 16:06:08;;;;;;;4.85;1.10;;;9.10;71.60;;;;;;4055327;29;20055;-78
2024/02/12 16:08:10;;;;;;;3.17;0.88;;;9.20;72.00;;;;;;4038960;29;20048;-76
2024/02/12 16:10:12;;;;;;;3.22;0.85;;;9.10;72.40;;;;;;4063227;29;20112;-76
2024/02/12 16:12:14;;;;;;;2.78;0.95;;;9.00;72.10;;;;;;4066400;29;20056;-77
2024/02/12 16:14:18;;;;;;;2.95;0.80;;;9.00;72.50;;;;;;4053549;29;20059;-76
2024/02/12 16:16:23;;;;;;;3.00;0.85;;;8.90;73.00;;;;;;4056676;29;20139;-76
2024/02/12 16:18:24;;;;;;;4.90;1.00;;;8.90;72.80;;;;;;4053269;29;20056;-77
2024/02/12 16:20:26;;;;;;;4.15;0.90;;;8.90;73.30;;;;;;4053039;29;20313;-77
2024/02/12 16:22:30;;;;;;;3.20;1.02;;;8.80;73.10;;;;;;4053065;29;20467;-76
2024/02/12 16:24:33;;;;;;;4.13;1.00;;;8.80;73.20;;;;;;4052957;29;20380;-76
2024/02/12 16:26:35;;;;;;;4.88;1.10;;;8.80;73.50;;;;;;4052770;29;20240;-77
2024/02/12 16:28:37;;;;;;;4.22;1.20;;;8.70;73.80;;;;;;4051752;29;20433;-77
2024/02/12 16:30:38;;;;;;;3.35;1.15;;;8.70;74.10;;;;;;4052229;29;20104;-76
2024/02/12 16:32:41;;;;;;;3.72;1.30;;;8.80;73.70;;;;;;4052983;29;20131;-76
2024/02/12 16:34:44;;;;;;;3.75;1.20;;;8.70;73.00;;;;;;4053134;29;20060;-77
2024/02/12 16:36:46;;;;;;;7.18;3.33;;;8.70;73.20;;;;;;4050987;29;20052;-77
2024/02/12 16:38:50;;;;;;;6.32;2.05;;;8.70;73.50;;;;;;4052753;29;20136;-76
2024/02/12 16:40:51;;;;;;;5.15;1.58;;;8.60;73.30;;;;;;4053705;29;20446;-77
2024/02/12 16:42:52;;;;;;;3.40;1.00;;;8.60;73.70;;;;;;4058081;29;20048;-76
2024/02/12 16:44:54;;;;;;;4.55;1.05;;;8.70;73.30;;;;;;4054112;29;20459;-77
2024/02/12 16:46:56;;;;;;;5.85;1.13;;;8.70;73.10;;;;;;4054754;29;20503;-76